Time;durP1;ratioP1;P1;durP2;ratioP2;P2;SDS_P1;SDS_P2;PMS_P1;PMS_P2;Temp;Humidity;BMP_temperature;BMP_pressure;BME280_temperature;BME280_humidity;BME280_pressure;Samples;Min_cycle;Max_cycle;Signal;HPM_P1;HPM_P2
2021/12/31 00:00:31;;;;;;;4.53;0.80;;;26.10;89.20;;;;;;4971497;28;20046;-75
2021/12/31 00:02:58;;;;;;;2.50;0.30;;;26.20;90.40;;;;;;4971667;28;20030;-77
2021/12/31 00:05:27;;;;;;;1.00;0.20;;;26.30;90.40;;;;;;4971186;28;20046;-75
2021/12/31 00:07:54;;;;;;;2.25;0.22;;;26.40;90.10;;;;;;4971205;28;20105;-76
2021/12/31 00:10:22;;;;;;;0.52;0.20;;;26.60;90.10;;;;;;4970480;28;20046;-74
2021/12/31 00:12:49;;;;;;;2.70;0.32;;;26.70;90.10;;;;;;4971940;28;20015;-78
2021/12/31 00:15:16;;;;;;;1.40;0.40;;;26.80;88.90;;;;;;4969903;28;20062;-76
2021/12/31 00:17:43;;;;;;;3.75;0.30;;;26.80;89.50;;;;;;4969954;28;20022;-75
2021/12/31 00:20:16;;;;;;;3.15;0.75;;;27.00;91.00;;;;;;4969396;28;20396;-76
2021/12/31 00:25:11;;;;;;;2.05;0.50;;;27.30;90.70;;;;;;4968267;28;20050;-75
2021/12/31 00:27:39;;;;;;;2.63;0.40;;;27.30;90.40;;;;;;4968760;28;20027;-75
2021/12/31 00:30:07;;;;;;;2.50;0.40;;;27.40;89.30;;;;;;4968912;28;20492;-77
2021/12/31 00:32:35;;;;;;;4.05;0.47;;;27.40;90.20;;;;;;4969144;28;20019;-77
2021/12/31 00:35:03;;;;;;;1.75;0.57;;;27.50;90.40;;;;;;4968583;28;20038;-76
2021/12/31 00:37:35;;;;;;;2.50;0.30;;;27.60;90.40;;;;;;4968425;28;20510;-76
2021/12/31 00:40:09;;;;;;;3.28;0.40;;;27.70;90.50;;;;;;4966909;28;20077;-76
2021/12/31 00:42:36;;;;;;;2.17;0.40;;;27.70;90.10;;;;;;4968888;28;20030;-79
2021/12/31 00:45:06;;;;;;;4.55;0.70;;;27.60;90.50;;;;;;4968393;28;20029;-76
2021/12/31 00:47:33;;;;;;;4.88;0.50;;;27.70;90.40;;;;;;4968754;28;20084;-78
2021/12/31 00:50:01;;;;;;;4.78;0.60;;;27.90;90.50;;;;;;4968115;28;20042;-74
2021/12/31 00:52:29;;;;;;;3.22;0.95;;;28.00;89.20;;;;;;4968324;28;20021;-74
2021/12/31 00:54:56;;;;;;;2.70;0.63;;;28.10;89.10;;;;;;4968421;28;20026;-77
2021/12/31 00:57:23;;;;;;;4.28;0.60;;;28.20;88.50;;;;;;4968829;28;20026;-75
2021/12/31 00:59:51;;;;;;;4.68;0.50;;;28.20;87.90;;;;;;4968003;28;20027;-75
2021/12/31 01:02:21;;;;;;;2.92;1.25;;;28.00;88.50;;;;;;4967664;28;20029;-77
2021/12/31 01:04:48;;;;;;;2.65;0.45;;;28.10;88.80;;;;;;4967413;28;20031;-74
2021/12/31 01:07:15;;;;;;;1.65;0.40;;;28.10;88.60;;;;;;4972488;28;20035;-75
2021/12/31 01:09:43;;;;;;;1.55;0.30;;;28.30;88.60;;;;;;4972610;28;20129;-78
2021/12/31 01:12:13;;;;;;;1.80;0.50;;;28.40;87.60;;;;;;4972908;28;20030;-76
2021/12/31 01:14:55;;;;;;;4.20;0.50;;;28.50;87.30;;;;;;4973214;28;20031;-78
2021/12/31 01:17:41;;;;;;;2.40;0.30;;;28.50;87.40;;;;;;4967676;28;20031;-73
2021/12/31 01:20:10;;;;;;;3.33;0.75;;;28.70;87.70;;;;;;4968852;28;20109;-79
2021/12/31 01:22:38;;;;;;;3.83;0.32;;;28.90;86.70;;;;;;4970619;28;20054;-75
2021/12/31 01:25:08;;;;;;;3.03;0.32;;;29.00;87.30;;;;;;4972782;28;20051;-75
2021/12/31 01:27:36;;;;;;;4.78;0.50;;;29.00;86.90;;;;;;4973122;28;20031;-77
2021/12/31 01:30:07;;;;;;;5.60;0.70;;;29.00;87.00;;;;;;4972240;28;20070;-77
2021/12/31 01:32:34;;;;;;;4.18;0.70;;;29.00;85.10;;;;;;4953453;28;20031;-77
2021/12/31 01:35:02;;;;;;;4.00;0.40;;;28.90;85.10;;;;;;4953295;28;20035;-75
2021/12/31 01:37:29;;;;;;;2.63;0.30;;;29.00;85.50;;;;;;4952217;28;20034;-76
2021/12/31 01:39:57;;;;;;;1.73;0.30;;;29.00;84.80;;;;;;4953154;28;20074;-75
2021/12/31 01:42:31;;;;;;;1.77;0.30;;;28.80;85.30;;;;;;4951913;28;20440;-76
2021/12/31 01:45:12;;;;;;;2.83;0.30;;;28.80;86.30;;;;;;4952249;28;20114;-75
2021/12/31 01:47:59;;;;;;;2.43;0.60;;;29.00;87.10;;;;;;4952302;28;20102;-75
2021/12/31 01:50:29;;;;;;;2.92;0.38;;;29.10;85.10;;;;;;4952640;28;20027;-74
2021/12/31 01:52:57;;;;;;;5.25;0.40;;;29.30;87.30;;;;;;4954653;28;20030;-75
2021/12/31 01:55:33;;;;;;;1.92;0.28;;;29.50;85.20;;;;;;4971155;28;20027;-74
2021/12/31 01:58:03;;;;;;;3.60;0.50;;;29.40;85.70;;;;;;4976518;28;20049;-76
2021/12/31 02:00:32;;;;;;;3.78;0.40;;;29.50;83.40;;;;;;4975124;28;20364;-74
2021/12/31 02:03:01;;;;;;;2.42;0.32;;;29.40;85.60;;;;;;4971695;28;20030;-74
2021/12/31 02:05:29;;;;;;;2.80;0.73;;;29.40;84.60;;;;;;4972734;28;20085;-77
2021/12/31 02:07:57;;;;;;;1.65;0.68;;;29.40;86.70;;;;;;4972557;28;20019;-77
2021/12/31 02:10:24;;;;;;;2.55;0.40;;;29.50;82.40;;;;;;4971962;28;20094;-75
2021/12/31 02:12:52;;;;;;;1.90;0.30;;;29.60;84.10;;;;;;4959132;28;20078;-77
2021/12/31 02:15:21;;;;;;;1.75;0.63;;;29.80;83.90;;;;;;4951232;28;20539;-78
2021/12/31 02:17:50;;;;;;;3.25;0.30;;;29.90;82.20;;;;;;4953381;28;20477;-78
2021/12/31 02:20:19;;;;;;;5.20;0.70;;;30.00;83.80;;;;;;4953290;28;20031;-75
2021/12/31 02:22:55;;;;;;;4.47;0.70;;;30.10;84.20;;;;;;4951511;28;20020;-76
2021/12/31 02:25:25;;;;;;;3.67;0.60;;;30.20;83.40;;;;;;4951953;28;20051;-74
2021/12/31 02:27:52;;;;;;;3.22;0.47;;;30.10;83.50;;;;;;4971089;28;20027;-74
2021/12/31 02:30:20;;;;;;;5.13;0.68;;;30.20;83.30;;;;;;4971146;28;20039;-75
2021/12/31 02:32:47;;;;;;;2.88;0.50;;;30.20;83.90;;;;;;4970736;28;20058;-76
2021/12/31 02:35:15;;;;;;;2.75;0.95;;;30.40;82.50;;;;;;4971043;28;20037;-74
2021/12/31 02:37:42;;;;;;;4.13;0.40;;;30.40;82.70;;;;;;4972040;28;20019;-73
2021/12/31 02:40:13;;;;;;;4.32;0.40;;;30.40;82.50;;;;;;4972506;28;20519;-76
2021/12/31 02:42:42;;;;;;;2.75;0.40;;;30.40;82.50;;;;;;4972609;28;20106;-75
2021/12/31 02:45:11;;;;;;;3.30;0.60;;;30.50;82.20;;;;;;4972730;28;20038;-75
2021/12/31 02:47:45;;;;;;;2.33;0.45;;;30.50;82.70;;;;;;4972918;28;20031;-75
2021/12/31 02:50:15;;;;;;;2.85;0.47;;;30.60;83.50;;;;;;4971235;28;20411;-72
2021/12/31 02:52:43;;;;;;;5.90;0.65;;;30.60;82.70;;;;;;4972715;28;20098;-73
2021/12/31 02:55:12;;;;;;;2.83;0.82;;;30.60;81.70;;;;;;4973084;28;20364;-73
2021/12/31 02:57:41;;;;;;;3.00;0.40;;;30.60;81.80;;;;;;4973125;28;20046;-74
2021/12/31 03:00:09;;;;;;;3.97;0.60;;;30.90;81.70;;;;;;4972950;28;20023;-73
2021/12/31 03:02:43;;;;;;;1.17;0.40;;;30.90;81.50;;;;;;4973093;28;20026;-73
2021/12/31 03:05:11;;;;;;;2.30;0.63;;;30.80;80.30;;;;;;4972628;28;20026;-73
2021/12/31 03:07:40;;;;;;;2.28;0.40;;;30.80;80.50;;;;;;4972063;28;20023;-74
2021/12/31 03:10:10;;;;;;;3.10;0.52;;;31.00;80.10;;;;;;4972336;28;20038;-73
2021/12/31 03:12:40;;;;;;;1.33;0.35;;;31.10;80.30;;;;;;4972993;28;20039;-74
2021/12/31 03:15:12;;;;;;;3.03;0.88;;;31.20;79.70;;;;;;4972921;28;20026;-73
2021/12/31 03:17:41;;;;;;;1.90;0.50;;;31.40;78.30;;;;;;4975358;28;20375;-73
2021/12/31 03:20:15;;;;;;;7.38;1.48;;;31.60;78.50;;;;;;4976585;28;20054;-73
2021/12/31 03:22:43;;;;;;;4.75;0.60;;;31.80;78.20;;;;;;4976365;28;20034;-72
2021/12/31 03:25:11;;;;;;;4.57;0.60;;;31.80;77.50;;;;;;4976412;28;20074;-76
2021/12/31 03:27:40;;;;;;;2.97;0.50;;;31.90;79.10;;;;;;4959357;28;20023;-73
2021/12/31 03:30:10;;;;;;;4.75;0.40;;;32.00;78.50;;;;;;4968371;28;20047;-74
2021/12/31 03:32:38;;;;;;;2.92;0.98;;;32.20;77.10;;;;;;4968955;28;20423;-74
2021/12/31 03:35:05;;;;;;;2.75;0.50;;;32.30;77.70;;;;;;4971090;28;20034;-77
2021/12/31 03:37:33;;;;;;;2.85;0.57;;;32.50;77.90;;;;;;4969694;28;20038;-74
2021/12/31 03:40:00;;;;;;;3.47;0.55;;;32.60;77.20;;;;;;4969509;28;20033;-73
2021/12/31 03:42:27;;;;;;;2.40;0.70;;;33.00;77.10;;;;;;4969778;28;20058;-76
2021/12/31 03:44:55;;;;;;;2.17;0.40;;;33.00;75.40;;;;;;4970986;28;20058;-72
2021/12/31 03:47:22;;;;;;;3.78;0.60;;;33.30;73.70;;;;;;4971085;28;20050;-73
2021/12/31 03:49:49;;;;;;;3.08;0.50;;;33.50;74.00;;;;;;4970688;28;20438;-72
2021/12/31 03:52:17;;;;;;;2.65;0.32;;;33.10;74.90;;;;;;4970648;28;20121;-76
2021/12/31 03:54:44;;;;;;;2.08;0.40;;;33.60;74.10;;;;;;4970273;28;20061;-75
2021/12/31 03:57:14;;;;;;;3.70;0.60;;;33.50;70.50;;;;;;4971122;28;20030;-76
2021/12/31 03:59:41;;;;;;;6.40;0.50;;;32.60;74.10;;;;;;4970250;28;20027;-76
2021/12/31 04:02:08;;;;;;;4.65;0.30;;;32.40;75.30;;;;;;4970704;28;20026;-78
2021/12/31 04:04:36;;;;;;;2.55;0.40;;;32.30;75.10;;;;;;4970221;28;20043;-76
2021/12/31 04:07:03;;;;;;;5.78;0.50;;;32.60;75.00;;;;;;4970588;28;20384;-77
2021/12/31 04:09:30;;;;;;;4.07;0.60;;;32.70;73.20;;;;;;4969990;28;20035;-74
2021/12/31 04:11:58;;;;;;;2.63;0.52;;;32.90;74.00;;;;;;4970504;28;20121;-76
2021/12/31 04:14:25;;;;;;;2.95;0.77;;;33.20;72.60;;;;;;4970627;28;20022;-74
2021/12/31 04:16:52;;;;;;;5.32;0.60;;;33.00;72.80;;;;;;4970541;28;20035;-75
2021/12/31 04:19:19;;;;;;;4.75;0.85;;;33.10;73.30;;;;;;4970062;28;20033;-74
2021/12/31 04:21:49;;;;;;;3.80;0.60;;;33.20;73.50;;;;;;4970427;28;20031;-75
2021/12/31 04:24:29;;;;;;;3.20;0.73;;;33.20;74.30;;;;;;4969975;28;20137;-75
2021/12/31 04:26:57;;;;;;;3.80;0.60;;;33.20;73.80;;;;;;4969043;28;20030;-76
2021/12/31 04:29:24;;;;;;;3.35;0.82;;;33.20;73.00;;;;;;4970243;28;20043;-74
2021/12/31 04:31:52;;;;;;;6.75;0.80;;;33.30;72.00;;;;;;4969662;28;20118;-72
2021/12/31 04:34:19;;;;;;;4.55;0.70;;;33.20;72.60;;;;;;4969885;28;20035;-75
2021/12/31 04:36:47;;;;;;;4.57;0.95;;;33.20;72.90;;;;;;4968000;28;20022;-73
2021/12/31 04:39:14;;;;;;;5.63;0.93;;;32.90;74.70;;;;;;4969077;28;20038;-73
2021/12/31 04:41:41;;;;;;;4.13;0.50;;;33.00;73.40;;;;;;4970065;28;20034;-74
2021/12/31 04:44:09;;;;;;;4.75;0.77;;;33.30;72.80;;;;;;4970560;28;20389;-72
2021/12/31 04:46:36;;;;;;;5.65;0.88;;;33.20;74.30;;;;;;4970066;28;20483;-76
2021/12/31 04:49:06;;;;;;;4.55;1.05;;;33.30;73.50;;;;;;4969085;28;20089;-76
2021/12/31 04:51:34;;;;;;;4.50;0.90;;;33.40;72.60;;;;;;4969283;28;20062;-74
2021/12/31 04:54:01;;;;;;;2.78;0.70;;;33.40;73.30;;;;;;4969634;28;20035;-73
2021/12/31 04:56:29;;;;;;;4.93;1.02;;;33.50;73.00;;;;;;4969453;28;20041;-76
2021/12/31 04:58:56;;;;;;;6.95;1.48;;;33.90;71.50;;;;;;4969519;28;20019;-72
2021/12/31 05:01:23;;;;;;;4.75;1.17;;;33.80;71.30;;;;;;4969845;28;20023;-77
2021/12/31 05:03:50;;;;;;;3.13;0.95;;;33.80;70.50;;;;;;4969531;28;20097;-73
2021/12/31 05:06:18;;;;;;;4.60;1.63;;;33.30;70.90;;;;;;4969442;28;20110;-75
2021/12/31 05:08:45;;;;;;;9.23;2.13;;;33.20;70.60;;;;;;4968703;28;20030;-75
2021/12/31 05:11:12;;;;;;;4.25;0.82;;;33.40;70.10;;;;;;4968934;28;20472;-75
2021/12/31 05:13:40;;;;;;;3.40;0.50;;;32.90;70.50;;;;;;4969227;28;20023;-73
2021/12/31 05:16:07;;;;;;;2.85;1.00;;;32.60;71.40;;;;;;4969227;28;20505;-74
2021/12/31 05:18:34;;;;;;;5.70;0.98;;;32.60;72.50;;;;;;4969008;28;20033;-74
2021/12/31 05:21:02;;;;;;;5.95;0.68;;;32.60;72.20;;;;;;4969044;28;20019;-75
2021/12/31 05:23:29;;;;;;;5.15;1.15;;;32.60;73.10;;;;;;4968982;28;20039;-74
2021/12/31 05:25:56;;;;;;;5.40;0.60;;;32.50;73.10;;;;;;4969109;28;20034;-76
2021/12/31 05:28:24;;;;;;;4.93;0.65;;;32.80;72.20;;;;;;4968543;28;20109;-77
2021/12/31 05:30:51;;;;;;;6.13;1.02;;;32.80;72.20;;;;;;4968227;28;20522;-75
2021/12/31 05:33:18;;;;;;;7.93;0.88;;;32.90;71.50;;;;;;4968670;28;20034;-77
2021/12/31 05:35:46;;;;;;;4.45;0.73;;;32.40;73.20;;;;;;4969050;28;20058;-73
2021/12/31 05:38:13;;;;;;;3.33;0.65;;;32.40;72.40;;;;;;4968521;28;20027;-74
2021/12/31 05:40:40;;;;;;;4.15;0.70;;;32.60;72.20;;;;;;4967691;28;20035;-75
2021/12/31 05:43:08;;;;;;;4.63;0.77;;;32.30;71.80;;;;;;4968470;28;20158;-75
2021/12/31 05:45:35;;;;;;;4.75;0.93;;;32.20;72.10;;;;;;4968574;28;20019;-78
2021/12/31 05:48:02;;;;;;;5.53;0.82;;;32.10;72.70;;;;;;4968490;28;20491;-74
2021/12/31 05:50:30;;;;;;;5.72;0.82;;;31.50;73.90;;;;;;4968275;28;20034;-77
2021/12/31 05:52:58;;;;;;;3.63;0.50;;;31.30;75.40;;;;;;4968941;28;20033;-73
2021/12/31 05:55:26;;;;;;;6.60;0.90;;;31.20;76.70;;;;;;4968618;28;20031;-77
2021/12/31 05:57:57;;;;;;;6.97;1.05;;;31.30;76.50;;;;;;4968606;28;20037;-75
2021/12/31 06:00:26;;;;;;;7.20;0.90;;;31.10;77.00;;;;;;4968379;28;20035;-76
2021/12/31 06:02:53;;;;;;;5.72;0.80;;;30.70;78.40;;;;;;4968420;28;20648;-76
2021/12/31 06:05:20;;;;;;;4.57;0.60;;;30.30;78.90;;;;;;4968414;28;20034;-75
2021/12/31 06:07:48;;;;;;;4.40;0.70;;;30.10;79.10;;;;;;4968676;28;20384;-76
2021/12/31 06:10:15;;;;;;;5.50;1.08;;;30.00;79.30;;;;;;4968408;28;20031;-77
2021/12/31 06:12:43;;;;;;;5.88;0.80;;;29.80;79.60;;;;;;4968088;28;20039;-76
2021/12/31 06:15:13;;;;;;;8.25;0.90;;;29.30;80.00;;;;;;4967815;28;20109;-74
2021/12/31 06:17:40;;;;;;;7.63;1.42;;;29.30;82.60;;;;;;4968167;28;20751;-76
2021/12/31 06:20:09;;;;;;;5.75;0.73;;;29.00;84.00;;;;;;4968106;28;20483;-74
2021/12/31 06:22:37;;;;;;;9.38;1.27;;;28.80;84.30;;;;;;4968409;28;20026;-78
2021/12/31 06:25:05;;;;;;;10.05;1.70;;;28.70;85.60;;;;;;4968370;28;20101;-74
2021/12/31 06:27:32;;;;;;;6.93;1.30;;;28.70;84.60;;;;;;4968236;28;20043;-74
2021/12/31 06:30:00;;;;;;;7.70;1.30;;;28.70;84.50;;;;;;4967867;28;20468;-77
2021/12/31 06:32:27;;;;;;;6.70;1.48;;;28.50;84.80;;;;;;4968152;28;20636;-74
2021/12/31 06:34:54;;;;;;;5.28;1.33;;;28.50;85.20;;;;;;4968392;28;20035;-74
2021/12/31 06:37:22;;;;;;;6.82;0.82;;;28.60;84.80;;;;;;4968170;28;20479;-74
2021/12/31 06:39:49;;;;;;;5.93;0.90;;;28.50;85.00;;;;;;4967758;28;20122;-75
2021/12/31 06:42:16;;;;;;;7.40;0.98;;;28.40;85.80;;;;;;4968223;28;20019;-75
2021/12/31 06:44:44;;;;;;;6.00;0.80;;;28.30;86.50;;;;;;4968336;28;20114;-74
2021/12/31 06:47:11;;;;;;;7.47;0.85;;;28.20;86.50;;;;;;4968129;28;20113;-74
2021/12/31 06:49:38;;;;;;;7.32;1.55;;;28.30;87.40;;;;;;4967858;28;20071;-74
2021/12/31 06:52:06;;;;;;;8.55;0.80;;;28.40;83.40;;;;;;4971842;28;20046;-74
2021/12/31 06:54:33;;;;;;;6.55;1.42;;;28.30;85.90;;;;;;4971927;28;20023;-75
2021/12/31 06:57:00;;;;;;;6.78;1.35;;;28.60;86.80;;;;;;4971773;28;20031;-74
2021/12/31 06:59:28;;;;;;;6.18;1.08;;;28.60;86.70;;;;;;4971650;28;20030;-77
2021/12/31 07:01:57;;;;;;;4.57;0.60;;;28.40;85.30;;;;;;4971664;28;20543;-75
2021/12/31 07:04:25;;;;;;;6.32;1.88;;;28.20;85.00;;;;;;4970115;28;20022;-77
2021/12/31 07:06:52;;;;;;;8.90;0.90;;;28.20;86.20;;;;;;4971450;28;20625;-75
2021/12/31 07:09:19;;;;;;;8.43;1.35;;;28.10;85.80;;;;;;4971128;28;20030;-77
2021/12/31 07:11:46;;;;;;;8.25;1.27;;;27.90;86.70;;;;;;4971750;28;20439;-76
2021/12/31 07:14:14;;;;;;;4.13;0.88;;;27.70;86.90;;;;;;4971223;28;20110;-75
2021/12/31 07:16:41;;;;;;;10.23;1.65;;;27.60;88.90;;;;;;4971298;28;20035;-75
2021/12/31 07:19:08;;;;;;;7.68;1.65;;;27.70;88.90;;;;;;4970611;28;20061;-70
2021/12/31 07:21:36;;;;;;;6.90;1.05;;;27.70;88.50;;;;;;4971088;28;20035;-72
2021/12/31 07:24:03;;;;;;;5.57;1.08;;;27.70;88.00;;;;;;4971188;28;20081;-72
2021/12/31 07:26:30;;;;;;;9.65;1.40;;;27.70;88.50;;;;;;4971138;28;20505;-76
2021/12/31 07:28:58;;;;;;;5.68;1.45;;;27.50;89.80;;;;;;4970967;28;20487;-74
2021/12/31 07:31:25;;;;;;;6.85;1.08;;;27.60;89.60;;;;;;4971061;28;20034;-76
2021/12/31 07:33:52;;;;;;;7.78;1.13;;;27.60;88.10;;;;;;4971313;28;20050;-76
2021/12/31 07:36:20;;;;;;;6.72;1.00;;;27.30;86.40;;;;;;4971662;28;20113;-76
2021/12/31 07:38:55;;;;;;;4.50;1.10;;;27.00;87.80;;;;;;4971254;28;20027;-78
2021/12/31 07:41:23;;;;;;;9.40;1.40;;;27.00;88.70;;;;;;4970755;28;20061;-78
2021/12/31 07:43:50;;;;;;;6.93;0.82;;;26.90;89.20;;;;;;4972138;28;20062;-77
2021/12/31 07:46:17;;;;;;;6.85;0.90;;;26.80;88.90;;;;;;4971301;28;20453;-79
2021/12/31 07:48:44;;;;;;;5.57;0.80;;;26.60;88.80;;;;;;4970866;28;20101;-75
2021/12/31 07:51:12;;;;;;;10.15;1.17;;;26.50;88.40;;;;;;4970993;28;20041;-79
2021/12/31 07:53:39;;;;;;;7.82;1.50;;;26.30;90.10;;;;;;4971131;28;20538;-77
2021/12/31 07:56:06;;;;;;;10.27;1.73;;;26.30;90.30;;;;;;4971095;28;20490;-78
2021/12/31 07:58:34;;;;;;;7.07;0.75;;;26.30;90.40;;;;;;4970751;28;20093;-76
2021/12/31 08:01:01;;;;;;;8.30;1.55;;;26.20;90.80;;;;;;4970786;28;20066;-77
2021/12/31 08:03:28;;;;;;;7.97;1.50;;;26.20;91.00;;;;;;4970455;28;20046;-74
2021/12/31 08:05:56;;;;;;;7.28;1.30;;;26.20;91.00;;;;;;4971130;28;20025;-73
2021/12/31 08:08:23;;;;;;;6.70;1.10;;;26.20;90.80;;;;;;4970868;28;20037;-76
2021/12/31 08:10:50;;;;;;;8.38;1.08;;;26.00;90.80;;;;;;4969143;28;20057;-75
2021/12/31 08:13:18;;;;;;;8.20;1.52;;;26.00;91.00;;;;;;4972142;28;20196;-72
2021/12/31 08:15:45;;;;;;;11.10;1.10;;;25.90;91.40;;;;;;4971472;28;20034;-76
2021/12/31 08:18:12;;;;;;;9.68;1.48;;;25.70;91.90;;;;;;4970782;28;20041;-72
2021/12/31 08:20:40;;;;;;;10.38;1.35;;;25.60;92.20;;;;;;4970768;28;20043;-74
2021/12/31 08:23:09;;;;;;;8.43;1.55;;;25.60;92.40;;;;;;4969880;28;20173;-74
2021/12/31 08:25:37;;;;;;;8.02;1.00;;;25.60;92.40;;;;;;4970836;28;20499;-75
2021/12/31 08:28:05;;;;;;;6.13;1.10;;;25.60;92.40;;;;;;4970491;28;20078;-74
2021/12/31 08:30:33;;;;;;;9.10;1.20;;;25.50;92.30;;;;;;4969737;28;20051;-76
2021/12/31 08:33:00;;;;;;;9.13;1.35;;;25.40;92.60;;;;;;4971734;28;20027;-74
2021/12/31 08:35:27;;;;;;;7.13;1.30;;;25.40;92.90;;;;;;4970937;28;20034;-75
2021/12/31 08:37:55;;;;;;;8.07;1.20;;;25.30;93.10;;;;;;4971216;28;20386;-73
2021/12/31 08:40:23;;;;;;;8.60;1.55;;;25.20;93.40;;;;;;4970651;28;20031;-73
2021/12/31 08:42:50;;;;;;;7.68;1.15;;;25.20;93.60;;;;;;4969087;28;20077;-73
2021/12/31 08:45:18;;;;;;;8.00;1.48;;;25.10;93.80;;;;;;4970849;28;20056;-74
2021/12/31 08:47:46;;;;;;;10.75;1.75;;;24.90;93.70;;;;;;4970655;28;20081;-76
2021/12/31 08:50:13;;;;;;;9.55;1.38;;;24.80;94.20;;;;;;4970501;28;20031;-74
2021/12/31 08:52:41;;;;;;;10.88;1.88;;;24.80;94.30;;;;;;4953864;28;20058;-72
2021/12/31 08:55:11;;;;;;;11.40;2.58;;;24.80;94.10;;;;;;4971747;28;20113;-75
2021/12/31 08:57:38;;;;;;;13.30;1.60;;;24.70;94.40;;;;;;4971196;28;20488;-74
2021/12/31 09:00:07;;;;;;;8.23;1.55;;;24.70;94.80;;;;;;4969989;28;20039;-74
2021/12/31 09:02:42;;;;;;;6.88;1.25;;;24.70;94.90;;;;;;4970061;28;20082;-74
2021/12/31 09:05:09;;;;;;;9.27;1.33;;;24.70;94.80;;;;;;4971381;28;20031;-75
2021/12/31 09:07:37;;;;;;;9.77;1.33;;;24.60;94.80;;;;;;4969910;28;20396;-74
2021/12/31 09:10:05;;;;;;;8.50;1.77;;;24.60;95.00;;;;;;4971135;28;20107;-77
2021/12/31 09:12:32;;;;;;;9.02;1.48;;;24.50;95.00;;;;;;4970929;28;20027;-76
2021/12/31 09:15:00;;;;;;;15.55;2.42;;;24.50;94.80;;;;;;4971200;28;20031;-79
2021/12/31 09:17:28;;;;;;;13.18;2.33;;;24.40;94.80;;;;;;4970011;28;20554;-74
2021/12/31 09:19:55;;;;;;;6.28;1.42;;;24.30;95.10;;;;;;4977897;28;20023;-73
2021/12/31 09:22:23;;;;;;;10.27;1.63;;;24.30;95.00;;;;;;4971130;28;20484;-76
2021/12/31 09:24:50;;;;;;;12.75;0.95;;;24.30;94.70;;;;;;4969034;28;20050;-77
2021/12/31 09:27:18;;;;;;;7.38;1.40;;;24.30;94.90;;;;;;4969670;28;20034;-78
2021/12/31 09:29:46;;;;;;;8.00;1.60;;;24.30;95.20;;;;;;4968667;28;20027;-78
2021/12/31 09:32:13;;;;;;;8.27;0.90;;;24.20;95.30;;;;;;4969740;28;20050;-75
2021/12/31 09:34:43;;;;;;;11.82;1.33;;;24.20;95.50;;;;;;4969519;28;20428;-77
2021/12/31 09:37:11;;;;;;;7.10;1.30;;;24.20;95.60;;;;;;4970062;28;20030;-79
2021/12/31 09:39:39;;;;;;;7.85;1.17;;;24.20;95.40;;;;;;4968786;28;20173;-77
2021/12/31 09:42:07;;;;;;;6.80;1.45;;;24.20;95.40;;;;;;4968865;28;20150;-79
2021/12/31 09:44:37;;;;;;;7.93;1.08;;;24.20;95.40;;;;;;4968789;28;20043;-74
2021/12/31 09:47:10;;;;;;;12.07;1.40;;;24.20;95.30;;;;;;4969134;28;20468;-74
2021/12/31 09:49:38;;;;;;;8.50;1.58;;;24.20;95.50;;;;;;4968450;28;20909;-74
2021/12/31 09:52:10;;;;;;;9.05;1.45;;;24.10;95.90;;;;;;4968575;28;20026;-74
2021/12/31 09:54:44;;;;;;;7.97;1.00;;;24.00;96.00;;;;;;4968684;28;20059;-74
2021/12/31 09:57:22;;;;;;;12.35;2.15;;;24.00;96.00;;;;;;4968832;28;20113;-75
2021/12/31 09:59:49;;;;;;;7.35;1.55;;;24.00;96.20;;;;;;4968269;28;20023;-73
2021/12/31 10:02:33;;;;;;;8.57;1.20;;;23.90;96.40;;;;;;4968708;28;20042;-74
2021/12/31 10:05:04;;;;;;;9.00;1.98;;;23.90;96.60;;;;;;4968399;28;20081;-73
2021/12/31 10:07:33;;;;;;;11.97;1.73;;;23.90;96.70;;;;;;4968439;28;20033;-78
2021/12/31 10:10:09;;;;;;;9.95;1.70;;;23.90;96.60;;;;;;4968566;28;20629;-74
2021/12/31 10:12:59;;;;;;;17.30;9.57;;;23.90;96.80;;;;;;4968639;28;20031;-73
2021/12/31 10:15:27;;;;;;;31.13;20.63;;;23.90;97.00;;;;;;4968375;28;20035;-74
2021/12/31 10:17:55;;;;;;;46.80;41.90;;;23.90;97.30;;;;;;4968449;28;20546;-75
2021/12/31 10:20:23;;;;;;;40.65;35.80;;;23.90;97.40;;;;;;4967960;28;20066;-77
2021/12/31 10:22:51;;;;;;;47.67;42.58;;;23.90;97.60;;;;;;4967838;28;20031;-74
2021/12/31 10:25:21;;;;;;;35.75;31.98;;;23.90;97.70;;;;;;4966018;28;20054;-75
2021/12/31 10:27:51;;;;;;;24.33;15.75;;;23.80;97.70;;;;;;4966942;28;20066;-74
2021/12/31 10:30:24;;;;;;;22.58;8.80;;;23.80;97.60;;;;;;4968010;28;20035;-72
2021/12/31 10:32:52;;;;;;;12.25;5.18;;;23.80;97.50;;;;;;4968351;28;20027;-73
2021/12/31 10:35:21;;;;;;;10.82;2.78;;;23.70;97.50;;;;;;4968473;28;20134;-76
2021/12/31 10:37:51;;;;;;;10.57;2.03;;;23.80;97.40;;;;;;4968173;28;20046;-73
2021/12/31 10:40:36;;;;;;;8.95;1.50;;;23.70;97.50;;;;;;4968365;28;20041;-73
2021/12/31 10:43:17;;;;;;;11.00;2.20;;;23.80;97.70;;;;;;4968439;28;20571;-73
2021/12/31 10:46:04;;;;;;;8.90;2.10;;;23.80;97.80;;;;;;4968139;28;20476;-74
2021/12/31 10:48:42;;;;;;;13.63;2.00;;;23.80;98.00;;;;;;4968182;28;20384;-73
2021/12/31 10:51:12;;;;;;;11.13;2.20;;;23.80;98.20;;;;;;4967908;28;20133;-73
2021/12/31 10:53:41;;;;;;;9.52;2.17;;;23.80;98.60;;;;;;4966718;28;20058;-73
2021/12/31 10:56:13;;;;;;;10.52;2.47;;;23.70;98.80;;;;;;4967900;28;20492;-73
2021/12/31 10:58:43;;;;;;;12.88;2.80;;;23.70;99.10;;;;;;4967888;28;20404;-74
2021/12/31 11:01:14;;;;;;;8.82;1.80;;;23.70;99.40;;;;;;4967715;28;20396;-73
2021/12/31 11:03:42;;;;;;;9.98;1.58;;;23.70;99.40;;;;;;4968081;28;20030;-74
2021/12/31 11:06:13;;;;;;;12.68;2.58;;;23.70;99.50;;;;;;4966649;28;20093;-73
2021/12/31 11:08:49;;;;;;;10.40;2.45;;;23.70;99.60;;;;;;4967618;28;20055;-73
2021/12/31 11:11:20;;;;;;;10.68;2.53;;;23.70;99.90;;;;;;4967245;28;20138;-73
2021/12/31 11:13:48;;;;;;;12.18;2.10;;;23.70;99.90;;;;;;4967755;28;20476;-73
2021/12/31 11:16:16;;;;;;;12.10;1.80;;;23.70;99.90;;;;;;4967817;28;20023;-73
2021/12/31 11:18:45;;;;;;;14.63;2.13;;;23.70;99.90;;;;;;4967580;28;20472;-72
2021/12/31 11:21:13;;;;;;;12.20;1.83;;;23.60;99.90;;;;;;4967959;28;20513;-73
2021/12/31 11:23:43;;;;;;;13.90;1.48;;;23.60;99.90;;;;;;4967842;28;20138;-77
2021/12/31 11:26:13;;;;;;;8.55;1.42;;;23.60;99.90;;;;;;4968167;28;20035;-72
2021/12/31 11:28:44;;;;;;;12.63;1.85;;;23.50;99.90;;;;;;4967538;28;20058;-73
2021/12/31 11:31:21;;;;;;;10.38;1.42;;;23.60;99.50;;;;;;4967654;28;20037;-74
2021/12/31 11:34:11;;;;;;;12.38;1.90;;;23.50;99.20;;;;;;4967315;28;20034;-78
2021/12/31 11:36:57;;;;;;;13.88;3.08;;;23.50;99.30;;;;;;4962642;28;20042;-74
2021/12/31 11:39:26;;;;;;;10.07;1.40;;;23.50;99.30;;;;;;4971273;28;20058;-72
2021/12/31 11:42:00;;;;;;;11.98;1.73;;;23.50;99.40;;;;;;4969999;28;20112;-72
2021/12/31 11:44:28;;;;;;;13.57;1.70;;;23.50;99.50;;;;;;4973296;28;20063;-76
2021/12/31 11:47:14;;;;;;;15.85;3.08;;;23.50;99.50;;;;;;4957075;28;20023;-72
2021/12/31 11:49:43;;;;;;;13.82;1.67;;;23.50;99.40;;;;;;4956365;28;20031;-72
2021/12/31 11:52:24;;;;;;;12.30;1.90;;;23.40;99.40;;;;;;4956506;28;20401;-73
2021/12/31 11:55:17;;;;;;;10.73;1.80;;;23.40;99.50;;;;;;4956452;28;20473;-74
2021/12/31 11:57:44;;;;;;;8.15;1.90;;;23.50;99.60;;;;;;4956418;28;20110;-72
2021/12/31 12:00:25;;;;;;;10.63;1.15;;;23.40;99.40;;;;;;4963834;28;20078;-73
2021/12/31 12:02:53;;;;;;;8.68;1.58;;;23.50;99.30;;;;;;4974381;28;20033;-70
2021/12/31 12:05:22;;;;;;;9.73;1.85;;;23.40;99.20;;;;;;4974695;28;20007;-70
2021/12/31 12:07:52;;;;;;;10.70;1.25;;;23.40;99.10;;;;;;4970462;28;20050;-71
2021/12/31 12:10:25;;;;;;;10.27;1.55;;;23.40;99.10;;;;;;4957723;28;20050;-71
2021/12/31 12:12:56;;;;;;;11.20;2.22;;;23.30;99.00;;;;;;4956216;28;20027;-70
2021/12/31 12:15:29;;;;;;;11.05;2.00;;;23.30;99.20;;;;;;4955993;28;20126;-69
2021/12/31 12:17:58;;;;;;;9.50;1.63;;;23.30;99.40;;;;;;4955955;28;20119;-69
2021/12/31 12:20:36;;;;;;;11.93;2.15;;;23.30;99.40;;;;;;4955812;28;20476;-70
2021/12/31 12:23:12;;;;;;;11.75;1.33;;;23.30;99.50;;;;;;4955801;28;20026;-71
2021/12/31 12:25:40;;;;;;;7.65;1.52;;;23.30;99.70;;;;;;4955963;28;20046;-71
2021/12/31 12:28:10;;;;;;;7.13;1.23;;;23.30;99.70;;;;;;4955138;28;20023;-70
2021/12/31 12:31:04;;;;;;;8.52;1.13;;;23.30;99.70;;;;;;4955257;28;20039;-70
2021/12/31 12:33:32;;;;;;;14.93;2.90;;;23.30;99.70;;;;;;4954717;28;20027;-70
2021/12/31 12:36:00;;;;;;;9.73;1.48;;;23.20;99.70;;;;;;4955442;28;20535;-73
2021/12/31 12:38:30;;;;;;;8.75;1.27;;;23.20;99.60;;;;;;4955776;28;20019;-72
2021/12/31 12:41:09;;;;;;;11.23;1.20;;;23.20;99.50;;;;;;4955573;28;20034;-73
2021/12/31 12:43:48;;;;;;;9.27;2.20;;;23.20;99.30;;;;;;4955707;28;20039;-72
2021/12/31 12:46:18;;;;;;;7.85;1.05;;;23.20;99.30;;;;;;4955503;28;20027;-74
2021/12/31 12:48:53;;;;;;;9.13;1.52;;;23.20;99.30;;;;;;4954855;28;20024;-75
2021/12/31 12:51:31;;;;;;;12.07;1.60;;;23.20;99.20;;;;;;4954449;28;20035;-72
2021/12/31 12:54:01;;;;;;;13.75;1.58;;;23.10;99.20;;;;;;4955633;28;20027;-72
2021/12/31 12:56:29;;;;;;;7.45;1.48;;;23.10;99.30;;;;;;4955307;28;20544;-75
2021/12/31 12:59:01;;;;;;;12.27;1.65;;;23.10;99.50;;;;;;4955020;28;20110;-77